SBOSBO IST / LTFM
Speedbird OnlineSpeedbird Online IST / LTFM

Istanbul Airport
09:55 4.7°C

Location Istanbul, Turkey
Latitude: 41.275278
Longitude: 28.751944
Web Airport Website | Wikipedia
Altitude 99 Meter / 325 Feet
Distance 2,451 KM / 1,523 Miles
from London.
Time Zone UTC +3 hours (Europe/Istanbul)
Codes IATA: IST
ICAO: LTFM
Currency £1 equals TRY 23.29
Runways
RunwayLength (m)Surface
16L3750Asphalt
16R3750Asphalt
17L4100Asphalt
17R4100Asphalt
183060Concrete
34L3750Asphalt
34R3750Asphalt
35L4100Asphalt
35R4100Asphalt
363060Concrete
Radio
TypeDescriptionFrequency
ClearanceIstanbul Clearance Delivery121.7
GROUNDIstanbul Ground121.75
TOWERIstanbul Tower131.1
Live ATC
METAR LTFM 290620Z 31007KT 280V350 9999 -RA SCT016 BKN022 03/00 Q1020 NOSIG RMK RWY17L 34013KT RWY34L 31006KT 270V340 RWY16R 33008KT RWY36 34010KT RWY18 34011KT
TAF TAF LTFM 290440Z 2906/3012 30008KT 9999 SCT016 BKN025 BECMG 2906/2909 33015G25KT TEMPO 2906/2909 -RASN TEMPO 2911/2915 -SNRA TEMPO 2916/2920 -SN TEMPO 2920/2924 -SN BECMG 3002/3005 34010KT
Weather As Of 29 Jan 2023 09:55
Description Overcast clouds
Wind 16 km/h from West (288°)
Cloud Cover 100%
Precipitation Rain: none, Snow: none
Sunrise 08:19
Sunset 18:16
Lounges IGA Lounge , International
Rotations During the last 90 days there were
175 flights from LHR
177 flights to LHR



Support Speedbird Online

© 2017-2023 Speedbird Online